Airfield :
LOGIN :

Register | Disclaimer

   EN    FR    IT 

 










Legend :    VFR   Marginal VFR   IFR   Intensive IFR   Very Intensive IFR
Visi :
Ceiling :
>= 8 km
>= 3000ft
5 to 8 km
1000 to 3000 ft
1500m to 5 km
500 to 1000 ft
800 to 1500m
200 to 500 ft
< 800m
< 200 ft
Symbols :   Thunderstorms  Fog  Heavy snow  Heavy precipitations  Wind > 20 kt
SIGMETs :     Misc.  Thunderstorms  Icing  Turbulence  Mountain Waves  Volcanic Ashes






- Airport Elevation : 102 ft
- IATA code : CNG


LFBG - Cognac

CURRENT METAR :
  • 131700Z AUTO 04010KT 010V070 CAVOK 31/15 Q1019

EXPIRED METARs :
  • 131630Z AUTO 05009KT CAVOK 31/15 Q1020
  • 131600Z AUTO 03010KT CAVOK 31/16 Q1020
  • 131530Z AUTO 05008KT 020V080 CAVOK 31/15 Q1020
  • 131500Z AUTO 03009KT 360V070 CAVOK 31/15 Q1020
  • 131430Z AUTO 02008KT 330V060 CAVOK 31/15 Q1021

TAF TAF LFBG
Valid from the 13 at 09:00 until the 14 at 09:00 UTC


130800Z 1309/1409 03007KT CAVOK



MET'MAP, your aeronautical weather chart ! - Copyright ORBIFLY December 2007 - Disclaimer

ORBIFLY MET'MAP TEAM :

Programming & Development : Alexandra Zaïnal
Concept & original design : Baudouin d'Aumeries
Assistance for programming : Marc-Olivier Méhu
Technical & hardware support : Manuel Goepfert

Contact : metmap@orbifly.com




SOURCES & CREDITS :

   NOAA